PAED METAR and TAF weather

Enter ICAO airport designator
Station Type Date Time Source
PAED METAR 2019/08/19 00:56 UTC NOAA

PAED 190056Z 03025G34KT 10SM FEW050 FEW200 20/M03 A2997 RMK AO2A PK WND 04039/13 SLP144 T01951028 $


Station Type Date Time Source
PAED Decoded METAR 2019/08/19 00:56 UTC NOAA

Station name not available
Aug 18, 2019 - 08:56 PM EDT / 2019.08.19 0056 UTC
Wind: from the NNE (030 degrees) at 29 MPH (25 KT) gusting to 39 MPH (34 KT):0
Visibility: 10 mile(s):0
Sky conditions: mostly clear
Temperature: 67.1 F (19.5 C)
Dew Point: 27.0 F (-2.8 C)
Relative Humidity: 21%
Pressure (altimeter): 29.97 in. Hg (1014 hPa)
ob: PAED 190056Z 03025G34KT 10SM FEW050 FEW200 20/M03 A2997 RMK AO2A PK WND 04039/13 SLP144 T01951028
cycle: 1

Station Type Date Time Source
PAED TAF 2019/08/19 01:42 UTC NOAA

TAF TAF
AMD PAED 190132Z 1901/2001 01025G31KT 9999 SKC 520005 QNH2996INS
BECMG 1905/1906 03012KT 9999 SKC QNH2996INS
BECMG 1912/1913 05006KT 9999 SCT200 QNH2987INS TX20/1901Z TN09/1916Z

Example: see airport list